sensor_id;sensor_type;location;lat;lon;timestamp;P1;durP1;ratioP1;P2;durP2;ratioP2
4448;SDS011;2237;51.870;6.160;2024-02-15T00:01:49;15.02;;;6.20;;
4448;SDS011;2237;51.870;6.160;2024-02-15T00:04:16;19.50;;;8.57;;
4448;SDS011;2237;51.870;6.160;2024-02-15T00:06:43;13.43;;;7.50;;
4448;SDS011;2237;51.870;6.160;2024-02-15T00:09:10;17.02;;;7.90;;
4448;SDS011;2237;51.870;6.160;2024-02-15T00:11:36;16.30;;;8.15;;
4448;SDS011;2237;51.870;6.160;2024-02-15T00:14:05;15.60;;;8.05;;
4448;SDS011;2237;51.870;6.160;2024-02-15T00:16:31;15.13;;;8.00;;
4448;SDS011;2237;51.870;6.160;2024-02-15T00:18:58;19.70;;;8.98;;
4448;SDS011;2237;51.870;6.160;2024-02-15T00:21:26;20.92;;;9.15;;
4448;SDS011;2237;51.870;6.160;2024-02-15T00:23:52;15.95;;;9.30;;
4448;SDS011;2237;51.870;6.160;2024-02-15T00:26:22;20.33;;;8.43;;
4448;SDS011;2237;51.870;6.160;2024-02-15T00:28:48;17.55;;;8.32;;
4448;SDS011;2237;51.870;6.160;2024-02-15T00:31:15;20.35;;;9.40;;
4448;SDS011;2237;51.870;6.160;2024-02-15T00:33:41;16.95;;;9.27;;
4448;SDS011;2237;51.870;6.160;2024-02-15T00:36:09;16.65;;;8.95;;
4448;SDS011;2237;51.870;6.160;2024-02-15T00:38:36;17.77;;;9.00;;
4448;SDS011;2237;51.870;6.160;2024-02-15T00:41:04;16.00;;;8.50;;
4448;SDS011;2237;51.870;6.160;2024-02-15T00:43:37;17.42;;;9.18;;
4448;SDS011;2237;51.870;6.160;2024-02-15T00:46:03;18.15;;;9.07;;
4448;SDS011;2237;51.870;6.160;2024-02-15T00:48:30;21.83;;;9.57;;
4448;SDS011;2237;51.870;6.160;2024-02-15T00:50:56;18.00;;;9.38;;
4448;SDS011;2237;51.870;6.160;2024-02-15T00:53:24;19.00;;;9.35;;
4448;SDS011;2237;51.870;6.160;2024-02-15T00:55:51;16.65;;;8.48;;
4448;SDS011;2237;51.870;6.160;2024-02-15T00:58:17;14.80;;;8.23;;
4448;SDS011;2237;51.870;6.160;2024-02-15T01:00:44;15.77;;;8.10;;
4448;SDS011;2237;51.870;6.160;2024-02-15T01:03:11;16.30;;;8.32;;
4448;SDS011;2237;51.870;6.160;2024-02-15T01:05:37;25.63;;;8.85;;
4448;SDS011;2237;51.870;6.160;2024-02-15T01:08:04;17.55;;;8.27;;
4448;SDS011;2237;51.870;6.160;2024-02-15T01:10:31;15.80;;;7.88;;
4448;SDS011;2237;51.870;6.160;2024-02-15T01:12:57;13.40;;;7.35;;
4448;SDS011;2237;51.870;6.160;2024-02-15T01:15:24;15.15;;;7.13;;
4448;SDS011;2237;51.870;6.160;2024-02-15T01:17:50;16.73;;;7.38;;
4448;SDS011;2237;51.870;6.160;2024-02-15T01:20:17;14.43;;;6.78;;
4448;SDS011;2237;51.870;6.160;2024-02-15T01:22:43;17.85;;;7.57;;
4448;SDS011;2237;51.870;6.160;2024-02-15T01:25:13;15.30;;;7.78;;
4448;SDS011;2237;51.870;6.160;2024-02-15T01:27:41;14.77;;;7.72;;
4448;SDS011;2237;51.870;6.160;2024-02-15T01:30:08;14.07;;;6.88;;
4448;SDS011;2237;51.870;6.160;2024-02-15T01:32:36;18.95;;;7.32;;
4448;SDS011;2237;51.870;6.160;2024-02-15T01:35:03;19.20;;;7.18;;
4448;SDS011;2237;51.870;6.160;2024-02-15T01:37:29;18.05;;;8.02;;
4448;SDS011;2237;51.870;6.160;2024-02-15T01:39:56;20.17;;;8.13;;
4448;SDS011;2237;51.870;6.160;2024-02-15T01:42:22;20.42;;;8.23;;
4448;SDS011;2237;51.870;6.160;2024-02-15T01:44:49;18.05;;;8.15;;
4448;SDS011;2237;51.870;6.160;2024-02-15T01:47:16;20.70;;;8.40;;
4448;SDS011;2237;51.870;6.160;2024-02-15T01:49:45;18.25;;;8.10;;
4448;SDS011;2237;51.870;6.160;2024-02-15T01:52:15;28.73;;;9.50;;
4448;SDS011;2237;51.870;6.160;2024-02-15T01:54:44;16.75;;;8.07;;
4448;SDS011;2237;51.870;6.160;2024-02-15T01:57:12;19.95;;;8.63;;
4448;SDS011;2237;51.870;6.160;2024-02-15T01:59:38;19.08;;;9.07;;
4448;SDS011;2237;51.870;6.160;2024-02-15T02:02:06;19.13;;;7.00;;
4448;SDS011;2237;51.870;6.160;2024-02-15T02:04:37;16.70;;;8.13;;
4448;SDS011;2237;51.870;6.160;2024-02-15T02:07:04;18.20;;;8.10;;
4448;SDS011;2237;51.870;6.160;2024-02-15T02:09:31;19.60;;;8.18;;
4448;SDS011;2237;51.870;6.160;2024-02-15T02:11:57;18.50;;;8.20;;
4448;SDS011;2237;51.870;6.160;2024-02-15T02:14:24;16.35;;;7.60;;
4448;SDS011;2237;51.870;6.160;2024-02-15T02:16:51;18.38;;;7.28;;
4448;SDS011;2237;51.870;6.160;2024-02-15T02:19:17;14.63;;;6.50;;
4448;SDS011;2237;51.870;6.160;2024-02-15T02:21:44;14.63;;;7.28;;
4448;SDS011;2237;51.870;6.160;2024-02-15T02:24:14;15.50;;;6.43;;
4448;SDS011;2237;51.870;6.160;2024-02-15T02:26:47;16.50;;;6.22;;
4448;SDS011;2237;51.870;6.160;2024-02-15T02:29:16;18.33;;;6.82;;
4448;SDS011;2237;51.870;6.160;2024-02-15T02:31:42;15.02;;;6.25;;
4448;SDS011;2237;51.870;6.160;2024-02-15T02:34:09;11.88;;;5.95;;
4448;SDS011;2237;51.870;6.160;2024-02-15T02:36:37;13.48;;;6.35;;
4448;SDS011;2237;51.870;6.160;2024-02-15T02:39:03;20.13;;;6.50;;
4448;SDS011;2237;51.870;6.160;2024-02-15T02:41:30;20.10;;;6.57;;
4448;SDS011;2237;51.870;6.160;2024-02-15T02:43:57;15.50;;;6.20;;
4448;SDS011;2237;51.870;6.160;2024-02-15T02:46:23;15.00;;;6.28;;
4448;SDS011;2237;51.870;6.160;2024-02-15T02:48:50;16.13;;;6.07;;
4448;SDS011;2237;51.870;6.160;2024-02-15T02:51:17;14.00;;;5.72;;
4448;SDS011;2237;51.870;6.160;2024-02-15T02:53:44;15.18;;;6.13;;
4448;SDS011;2237;51.870;6.160;2024-02-15T02:56:10;15.60;;;5.38;;
4448;SDS011;2237;51.870;6.160;2024-02-15T02:58:38;13.65;;;5.57;;
4448;SDS011;2237;51.870;6.160;2024-02-15T03:01:08;15.15;;;6.78;;
4448;SDS011;2237;51.870;6.160;2024-02-15T03:03:35;16.70;;;5.68;;
4448;SDS011;2237;51.870;6.160;2024-02-15T03:06:02;13.68;;;5.97;;
4448;SDS011;2237;51.870;6.160;2024-02-15T03:08:28;13.85;;;5.65;;
4448;SDS011;2237;51.870;6.160;2024-02-15T03:10:55;14.35;;;5.47;;
4448;SDS011;2237;51.870;6.160;2024-02-15T03:13:22;14.50;;;5.70;;
4448;SDS011;2237;51.870;6.160;2024-02-15T03:15:49;16.88;;;5.50;;
4448;SDS011;2237;51.870;6.160;2024-02-15T03:18:17;13.55;;;5.55;;
4448;SDS011;2237;51.870;6.160;2024-02-15T03:20:43;13.70;;;5.70;;
4448;SDS011;2237;51.870;6.160;2024-02-15T03:23:10;14.32;;;5.40;;
4448;SDS011;2237;51.870;6.160;2024-02-15T03:25:37;13.90;;;4.70;;
4448;SDS011;2237;51.870;6.160;2024-02-15T03:28:04;13.20;;;4.93;;
4448;SDS011;2237;51.870;6.160;2024-02-15T03:30:31;16.40;;;5.93;;
4448;SDS011;2237;51.870;6.160;2024-02-15T03:32:59;16.45;;;5.60;;
4448;SDS011;2237;51.870;6.160;2024-02-15T03:35:27;13.52;;;4.47;;
4448;SDS011;2237;51.870;6.160;2024-02-15T03:40:24;12.90;;;5.43;;
4448;SDS011;2237;51.870;6.160;2024-02-15T03:42:55;15.30;;;5.57;;
4448;SDS011;2237;51.870;6.160;2024-02-15T03:45:22;17.60;;;7.47;;
4448;SDS011;2237;51.870;6.160;2024-02-15T03:47:51;22.10;;;8.38;;
4448;SDS011;2237;51.870;6.160;2024-02-15T03:50:18;30.50;;;11.65;;
4448;SDS011;2237;51.870;6.160;2024-02-15T03:52:48;27.80;;;12.05;;
4448;SDS011;2237;51.870;6.160;2024-02-15T03:55:15;35.05;;;14.25;;
4448;SDS011;2237;51.870;6.160;2024-02-15T03:57:41;31.25;;;13.75;;
4448;SDS011;2237;51.870;6.160;2024-02-15T04:00:10;32.83;;;14.13;;
4448;SDS011;2237;51.870;6.160;2024-02-15T04:02:38;32.30;;;14.68;;
4448;SDS011;2237;51.870;6.160;2024-02-15T04:05:07;29.50;;;12.65;;
4448;SDS011;2237;51.870;6.160;2024-02-15T04:07:35;29.80;;;13.18;;
4448;SDS011;2237;51.870;6.160;2024-02-15T04:10:03;29.60;;;11.43;;
4448;SDS011;2237;51.870;6.160;2024-02-15T04:12:30;32.00;;;13.52;;
4448;SDS011;2237;51.870;6.160;2024-02-15T04:14:57;27.23;;;11.27;;
4448;SDS011;2237;51.870;6.160;2024-02-15T04:17:31;30.13;;;12.80;;
4448;SDS011;2237;51.870;6.160;2024-02-15T04:20:01;25.33;;;10.10;;
4448;SDS011;2237;51.870;6.160;2024-02-15T04:22:30;21.73;;;9.35;;
4448;SDS011;2237;51.870;6.160;2024-02-15T04:25:06;21.23;;;9.23;;
4448;SDS011;2237;51.870;6.160;2024-02-15T04:27:37;23.33;;;7.90;;
4448;SDS011;2237;51.870;6.160;2024-02-15T04:30:04;16.25;;;6.53;;
4448;SDS011;2237;51.870;6.160;2024-02-15T04:32:33;14.02;;;5.60;;
4448;SDS011;2237;51.870;6.160;2024-02-15T04:35:01;14.57;;;6.07;;
4448;SDS011;2237;51.870;6.160;2024-02-15T04:37:28;9.18;;;4.63;;
4448;SDS011;2237;51.870;6.160;2024-02-15T04:39:58;9.13;;;3.63;;
4448;SDS011;2237;51.870;6.160;2024-02-15T04:42:33;9.80;;;3.67;;
4448;SDS011;2237;51.870;6.160;2024-02-15T04:45:00;9.02;;;3.08;;
4448;SDS011;2237;51.870;6.160;2024-02-15T04:47:27;7.45;;;3.00;;
4448;SDS011;2237;51.870;6.160;2024-02-15T04:49:56;7.32;;;2.90;;
4448;SDS011;2237;51.870;6.160;2024-02-15T04:52:22;11.52;;;3.45;;
4448;SDS011;2237;51.870;6.160;2024-02-15T04:54:49;12.38;;;2.40;;
4448;SDS011;2237;51.870;6.160;2024-02-15T04:57:16;6.38;;;2.00;;
4448;SDS011;2237;51.870;6.160;2024-02-15T04:59:43;12.85;;;2.45;;
4448;SDS011;2237;51.870;6.160;2024-02-15T05:02:13;7.47;;;2.17;;
4448;SDS011;2237;51.870;6.160;2024-02-15T05:04:39;6.43;;;2.13;;
4448;SDS011;2237;51.870;6.160;2024-02-15T05:07:09;3.88;;;1.83;;
4448;SDS011;2237;51.870;6.160;2024-02-15T05:09:36;29.40;;;3.42;;
4448;SDS011;2237;51.870;6.160;2024-02-15T05:12:03;10.75;;;2.55;;
4448;SDS011;2237;51.870;6.160;2024-02-15T05:14:30;7.35;;;2.65;;
4448;SDS011;2237;51.870;6.160;2024-02-15T05:16:57;7.28;;;2.28;;
4448;SDS011;2237;51.870;6.160;2024-02-15T05:19:25;8.70;;;2.25;;
4448;SDS011;2237;51.870;6.160;2024-02-15T05:21:52;10.88;;;2.67;;
4448;SDS011;2237;51.870;6.160;2024-02-15T05:24:18;8.32;;;2.33;;
4448;SDS011;2237;51.870;6.160;2024-02-15T05:26:45;7.00;;;2.10;;
4448;SDS011;2237;51.870;6.160;2024-02-15T05:29:13;6.70;;;2.15;;
4448;SDS011;2237;51.870;6.160;2024-02-15T05:31:40;6.32;;;2.17;;
4448;SDS011;2237;51.870;6.160;2024-02-15T05:34:07;4.32;;;1.80;;
4448;SDS011;2237;51.870;6.160;2024-02-15T05:36:35;7.15;;;1.95;;
4448;SDS011;2237;51.870;6.160;2024-02-15T05:39:01;8.38;;;2.47;;
4448;SDS011;2237;51.870;6.160;2024-02-15T05:41:28;6.72;;;2.30;;
4448;SDS011;2237;51.870;6.160;2024-02-15T05:43:55;9.45;;;2.10;;
4448;SDS011;2237;51.870;6.160;2024-02-15T05:46:24;13.05;;;3.30;;
4448;SDS011;2237;51.870;6.160;2024-02-15T05:48:50;6.43;;;2.70;;
4448;SDS011;2237;51.870;6.160;2024-02-15T05:51:21;8.00;;;2.85;;
4448;SDS011;2237;51.870;6.160;2024-02-15T05:53:48;9.13;;;2.63;;
4448;SDS011;2237;51.870;6.160;2024-02-15T05:56:16;7.85;;;2.42;;
4448;SDS011;2237;51.870;6.160;2024-02-15T05:58:42;8.98;;;2.67;;
4448;SDS011;2237;51.870;6.160;2024-02-15T06:01:09;8.85;;;3.00;;
4448;SDS011;2237;51.870;6.160;2024-02-15T06:03:39;6.45;;;2.65;;
4448;SDS011;2237;51.870;6.160;2024-02-15T06:06:07;8.98;;;2.88;;
4448;SDS011;2237;51.870;6.160;2024-02-15T06:08:34;14.45;;;2.70;;
4448;SDS011;2237;51.870;6.160;2024-02-15T06:11:02;9.35;;;2.20;;
4448;SDS011;2237;51.870;6.160;2024-02-15T06:13:30;9.85;;;2.47;;
4448;SDS011;2237;51.870;6.160;2024-02-15T06:15:57;8.27;;;2.78;;
4448;SDS011;2237;51.870;6.160;2024-02-15T06:18:24;10.23;;;2.40;;
4448;SDS011;2237;51.870;6.160;2024-02-15T06:23:23;9.50;;;2.10;;
4448;SDS011;2237;51.870;6.160;2024-02-15T06:25:51;12.20;;;2.55;;
4448;SDS011;2237;51.870;6.160;2024-02-15T06:28:22;10.18;;;3.58;;
4448;SDS011;2237;51.870;6.160;2024-02-15T06:31:08;15.15;;;4.22;;
4448;SDS011;2237;51.870;6.160;2024-02-15T06:33:54;8.85;;;3.00;;
4448;SDS011;2237;51.870;6.160;2024-02-15T06:36:49;10.75;;;2.97;;
4448;SDS011;2237;51.870;6.160;2024-02-15T06:39:38;8.15;;;2.47;;
4448;SDS011;2237;51.870;6.160;2024-02-15T06:42:10;7.45;;;2.65;;
4448;SDS011;2237;51.870;6.160;2024-02-15T06:44:41;13.45;;;3.17;;
4448;SDS011;2237;51.870;6.160;2024-02-15T06:47:09;12.15;;;2.63;;
4448;SDS011;2237;51.870;6.160;2024-02-15T06:49:37;8.30;;;3.17;;
4448;SDS011;2237;51.870;6.160;2024-02-15T06:52:07;15.18;;;3.85;;
4448;SDS011;2237;51.870;6.160;2024-02-15T06:54:34;8.23;;;2.97;;
4448;SDS011;2237;51.870;6.160;2024-02-15T06:57:04;11.77;;;3.10;;
4448;SDS011;2237;51.870;6.160;2024-02-15T06:59:32;7.63;;;2.65;;
4448;SDS011;2237;51.870;6.160;2024-02-15T07:01:59;5.97;;;2.22;;
4448;SDS011;2237;51.870;6.160;2024-02-15T07:04:26;3.70;;;1.60;;
4448;SDS011;2237;51.870;6.160;2024-02-15T07:06:54;7.50;;;2.10;;
4448;SDS011;2237;51.870;6.160;2024-02-15T07:09:21;6.47;;;1.80;;
4448;SDS011;2237;51.870;6.160;2024-02-15T07:11:53;9.48;;;2.72;;
4448;SDS011;2237;51.870;6.160;2024-02-15T07:14:20;7.97;;;2.03;;
4448;SDS011;2237;51.870;6.160;2024-02-15T07:16:47;4.07;;;1.63;;
4448;SDS011;2237;51.870;6.160;2024-02-15T07:19:15;9.02;;;2.30;;
4448;SDS011;2237;51.870;6.160;2024-02-15T07:21:42;5.45;;;1.75;;
4448;SDS011;2237;51.870;6.160;2024-02-15T07:24:09;8.98;;;2.40;;
4448;SDS011;2237;51.870;6.160;2024-02-15T07:26:36;7.10;;;1.88;;
4448;SDS011;2237;51.870;6.160;2024-02-15T07:29:03;6.88;;;2.00;;
4448;SDS011;2237;51.870;6.160;2024-02-15T07:31:34;7.13;;;1.90;;
4448;SDS011;2237;51.870;6.160;2024-02-15T07:34:00;6.40;;;2.50;;
4448;SDS011;2237;51.870;6.160;2024-02-15T07:36:27;9.30;;;3.45;;
4448;SDS011;2237;51.870;6.160;2024-02-15T07:38:54;16.70;;;4.07;;
4448;SDS011;2237;51.870;6.160;2024-02-15T07:41:24;9.32;;;3.42;;
4448;SDS011;2237;51.870;6.160;2024-02-15T07:43:51;5.50;;;2.60;;
4448;SDS011;2237;51.870;6.160;2024-02-15T07:46:20;8.02;;;3.05;;
4448;SDS011;2237;51.870;6.160;2024-02-15T07:48:48;10.38;;;3.83;;
4448;SDS011;2237;51.870;6.160;2024-02-15T07:51:16;4.15;;;2.30;;
4448;SDS011;2237;51.870;6.160;2024-02-15T07:53:44;7.45;;;2.92;;
4448;SDS011;2237;51.870;6.160;2024-02-15T07:56:11;10.20;;;3.03;;
4448;SDS011;2237;51.870;6.160;2024-02-15T07:58:39;6.95;;;2.75;;
4448;SDS011;2237;51.870;6.160;2024-02-15T08:01:18;7.97;;;2.25;;
4448;SDS011;2237;51.870;6.160;2024-02-15T08:03:51;8.70;;;2.42;;
4448;SDS011;2237;51.870;6.160;2024-02-15T08:06:20;9.40;;;3.72;;
4448;SDS011;2237;51.870;6.160;2024-02-15T08:08:47;9.30;;;3.05;;
4448;SDS011;2237;51.870;6.160;2024-02-15T08:11:14;11.30;;;2.90;;
4448;SDS011;2237;51.870;6.160;2024-02-15T08:16:22;8.65;;;2.72;;
4448;SDS011;2237;51.870;6.160;2024-02-15T08:18:49;6.05;;;2.70;;
4448;SDS011;2237;51.870;6.160;2024-02-15T08:23:55;8.20;;;2.13;;
4448;SDS011;2237;51.870;6.160;2024-02-15T08:26:22;7.95;;;2.05;;
4448;SDS011;2237;51.870;6.160;2024-02-15T08:28:48;4.28;;;2.10;;
4448;SDS011;2237;51.870;6.160;2024-02-15T08:31:15;7.53;;;2.17;;
4448;SDS011;2237;51.870;6.160;2024-02-15T08:33:41;4.82;;;2.00;;
4448;SDS011;2237;51.870;6.160;2024-02-15T08:36:11;6.30;;;2.20;;
4448;SDS011;2237;51.870;6.160;2024-02-15T08:38:39;5.00;;;1.98;;
4448;SDS011;2237;51.870;6.160;2024-02-15T08:41:07;6.50;;;2.78;;
4448;SDS011;2237;51.870;6.160;2024-02-15T08:43:35;7.90;;;3.55;;
4448;SDS011;2237;51.870;6.160;2024-02-15T08:46:04;7.22;;;4.65;;
4448;SDS011;2237;51.870;6.160;2024-02-15T08:48:32;9.18;;;4.40;;
4448;SDS011;2237;51.870;6.160;2024-02-15T08:50:59;7.60;;;4.30;;
4448;SDS011;2237;51.870;6.160;2024-02-15T08:53:26;8.10;;;4.38;;
4448;SDS011;2237;51.870;6.160;2024-02-15T08:55:53;8.95;;;3.95;;
4448;SDS011;2237;51.870;6.160;2024-02-15T08:58:20;7.35;;;4.22;;
4448;SDS011;2237;51.870;6.160;2024-02-15T09:00:47;4.88;;;3.35;;
4448;SDS011;2237;51.870;6.160;2024-02-15T09:03:14;6.32;;;2.60;;
4448;SDS011;2237;51.870;6.160;2024-02-15T09:05:40;9.20;;;3.28;;
4448;SDS011;2237;51.870;6.160;2024-02-15T09:08:07;4.40;;;1.90;;
4448;SDS011;2237;51.870;6.160;2024-02-15T09:10:34;7.68;;;2.88;;
4448;SDS011;2237;51.870;6.160;2024-02-15T09:13:02;10.98;;;2.65;;
4448;SDS011;2237;51.870;6.160;2024-02-15T09:15:29;6.40;;;2.33;;
4448;SDS011;2237;51.870;6.160;2024-02-15T09:17:57;8.18;;;2.25;;
4448;SDS011;2237;51.870;6.160;2024-02-15T09:20:25;9.18;;;2.58;;
4448;SDS011;2237;51.870;6.160;2024-02-15T09:22:54;7.38;;;2.38;;
4448;SDS011;2237;51.870;6.160;2024-02-15T09:25:22;10.23;;;2.20;;
4448;SDS011;2237;51.870;6.160;2024-02-15T09:27:52;8.13;;;2.38;;
4448;SDS011;2237;51.870;6.160;2024-02-15T09:30:22;7.15;;;2.47;;
4448;SDS011;2237;51.870;6.160;2024-02-15T09:32:51;6.05;;;2.90;;
4448;SDS011;2237;51.870;6.160;2024-02-15T09:35:17;7.63;;;3.90;;
4448;SDS011;2237;51.870;6.160;2024-02-15T09:37:45;9.20;;;3.85;;
4448;SDS011;2237;51.870;6.160;2024-02-15T09:40:15;12.18;;;4.10;;
4448;SDS011;2237;51.870;6.160;2024-02-15T09:42:44;8.48;;;4.18;;
4448;SDS011;2237;51.870;6.160;2024-02-15T09:45:11;8.57;;;3.70;;
4448;SDS011;2237;51.870;6.160;2024-02-15T09:47:39;7.78;;;3.08;;
4448;SDS011;2237;51.870;6.160;2024-02-15T09:50:09;7.38;;;2.50;;
4448;SDS011;2237;51.870;6.160;2024-02-15T09:52:44;8.38;;;2.30;;
4448;SDS011;2237;51.870;6.160;2024-02-15T09:55:12;9.38;;;2.10;;
4448;SDS011;2237;51.870;6.160;2024-02-15T09:57:44;4.60;;;2.22;;
4448;SDS011;2237;51.870;6.160;2024-02-15T10:00:13;3.20;;;1.48;;
4448;SDS011;2237;51.870;6.160;2024-02-15T10:02:40;4.28;;;1.70;;
4448;SDS011;2237;51.870;6.160;2024-02-15T10:05:11;5.13;;;1.73;;
4448;SDS011;2237;51.870;6.160;2024-02-15T10:07:41;5.90;;;1.80;;
4448;SDS011;2237;51.870;6.160;2024-02-15T10:10:18;4.80;;;1.77;;
4448;SDS011;2237;51.870;6.160;2024-02-15T10:12:50;8.20;;;1.77;;
4448;SDS011;2237;51.870;6.160;2024-02-15T10:15:33;5.28;;;1.70;;
4448;SDS011;2237;51.870;6.160;2024-02-15T10:20:29;11.05;;;2.10;;
4448;SDS011;2237;51.870;6.160;2024-02-15T10:25:28;7.03;;;1.88;;
4448;SDS011;2237;51.870;6.160;2024-02-15T10:28:05;6.13;;;1.77;;
4448;SDS011;2237;51.870;6.160;2024-02-15T10:30:34;5.47;;;1.80;;
4448;SDS011;2237;51.870;6.160;2024-02-15T10:33:02;4.05;;;1.77;;
4448;SDS011;2237;51.870;6.160;2024-02-15T10:35:29;5.50;;;2.22;;
4448;SDS011;2237;51.870;6.160;2024-02-15T10:38:06;8.35;;;1.70;;
4448;SDS011;2237;51.870;6.160;2024-02-15T10:40:37;3.38;;;1.55;;
4448;SDS011;2237;51.870;6.160;2024-02-15T10:43:04;6.10;;;1.67;;
4448;SDS011;2237;51.870;6.160;2024-02-15T10:45:34;7.82;;;1.42;;
4448;SDS011;2237;51.870;6.160;2024-02-15T10:48:07;3.67;;;1.45;;
4448;SDS011;2237;51.870;6.160;2024-02-15T10:50:36;4.57;;;1.65;;
4448;SDS011;2237;51.870;6.160;2024-02-15T10:53:26;5.75;;;1.50;;
4448;SDS011;2237;51.870;6.160;2024-02-15T10:58:33;6.88;;;1.88;;
4448;SDS011;2237;51.870;6.160;2024-02-15T11:01:06;6.93;;;1.98;;
4448;SDS011;2237;51.870;6.160;2024-02-15T11:06:02;9.23;;;1.80;;
4448;SDS011;2237;51.870;6.160;2024-02-15T11:08:33;3.78;;;1.40;;
4448;SDS011;2237;51.870;6.160;2024-02-15T11:11:01;7.18;;;1.50;;
4448;SDS011;2237;51.870;6.160;2024-02-15T11:13:31;4.22;;;1.48;;
4448;SDS011;2237;51.870;6.160;2024-02-15T11:15:57;3.10;;;1.67;;
4448;SDS011;2237;51.870;6.160;2024-02-15T11:18:41;4.95;;;1.42;;
4448;SDS011;2237;51.870;6.160;2024-02-15T11:21:12;5.55;;;1.88;;
4448;SDS011;2237;51.870;6.160;2024-02-15T11:23:39;8.00;;;1.55;;
4448;SDS011;2237;51.870;6.160;2024-02-15T11:35:17;7.10;;;1.80;;
4448;SDS011;2237;51.870;6.160;2024-02-15T11:42:53;5.43;;;1.92;;
4448;SDS011;2237;51.870;6.160;2024-02-15T11:45:26;6.20;;;2.10;;
4448;SDS011;2237;51.870;6.160;2024-02-15T11:47:59;5.57;;;1.92;;
4448;SDS011;2237;51.870;6.160;2024-02-15T11:50:27;5.40;;;1.80;;
4448;SDS011;2237;51.870;6.160;2024-02-15T11:53:01;6.30;;;1.60;;
4448;SDS011;2237;51.870;6.160;2024-02-15T11:55:32;3.95;;;1.60;;
4448;SDS011;2237;51.870;6.160;2024-02-15T11:58:00;3.58;;;1.50;;
4448;SDS011;2237;51.870;6.160;2024-02-15T12:00:38;3.95;;;1.75;;
4448;SDS011;2237;51.870;6.160;2024-02-15T12:03:23;3.63;;;1.40;;
4448;SDS011;2237;51.870;6.160;2024-02-15T12:06:25;3.20;;;1.42;;
4448;SDS011;2237;51.870;6.160;2024-02-15T12:09:12;3.78;;;1.80;;
4448;SDS011;2237;51.870;6.160;2024-02-15T12:12:03;5.65;;;1.70;;
4448;SDS011;2237;51.870;6.160;2024-02-15T12:14:49;7.15;;;1.80;;
4448;SDS011;2237;51.870;6.160;2024-02-15T12:17:34;5.85;;;1.90;;
4448;SDS011;2237;51.870;6.160;2024-02-15T12:20:19;4.75;;;1.70;;
4448;SDS011;2237;51.870;6.160;2024-02-15T12:22:51;7.93;;;2.38;;
4448;SDS011;2237;51.870;6.160;2024-02-15T12:25:19;6.20;;;1.98;;
4448;SDS011;2237;51.870;6.160;2024-02-15T12:27:54;5.43;;;1.40;;
4448;SDS011;2237;51.870;6.160;2024-02-15T12:30:21;6.43;;;2.13;;
4448;SDS011;2237;51.870;6.160;2024-02-15T12:32:49;5.03;;;1.67;;
4448;SDS011;2237;51.870;6.160;2024-02-15T12:35:19;5.22;;;1.58;;
4448;SDS011;2237;51.870;6.160;2024-02-15T12:37:46;4.35;;;1.40;;
4448;SDS011;2237;51.870;6.160;2024-02-15T12:40:14;7.53;;;1.50;;
4448;SDS011;2237;51.870;6.160;2024-02-15T12:42:44;5.65;;;1.55;;
4448;SDS011;2237;51.870;6.160;2024-02-15T12:45:17;7.25;;;1.63;;
4448;SDS011;2237;51.870;6.160;2024-02-15T12:47:51;4.97;;;1.45;;
4448;SDS011;2237;51.870;6.160;2024-02-15T12:50:22;5.00;;;1.80;;
4448;SDS011;2237;51.870;6.160;2024-02-15T12:52:58;3.55;;;1.40;;
4448;SDS011;2237;51.870;6.160;2024-02-15T12:55:32;4.32;;;1.30;;
4448;SDS011;2237;51.870;6.160;2024-02-15T13:00:34;3.55;;;1.35;;
4448;SDS011;2237;51.870;6.160;2024-02-15T13:03:03;5.07;;;1.40;;
4448;SDS011;2237;51.870;6.160;2024-02-15T13:05:30;5.75;;;1.30;;
4448;SDS011;2237;51.870;6.160;2024-02-15T13:07:58;2.83;;;1.23;;
4448;SDS011;2237;51.870;6.160;2024-02-15T13:10:24;7.43;;;1.77;;
4448;SDS011;2237;51.870;6.160;2024-02-15T13:12:55;6.38;;;1.50;;
4448;SDS011;2237;51.870;6.160;2024-02-15T13:15:22;4.68;;;1.80;;
4448;SDS011;2237;51.870;6.160;2024-02-15T13:17:53;5.53;;;1.80;;
4448;SDS011;2237;51.870;6.160;2024-02-15T13:20:24;3.83;;;1.58;;
4448;SDS011;2237;51.870;6.160;2024-02-15T13:23:07;9.65;;;2.22;;
4448;SDS011;2237;51.870;6.160;2024-02-15T13:25:36;8.25;;;1.95;;
4448;SDS011;2237;51.870;6.160;2024-02-15T13:28:05;6.53;;;1.58;;
4448;SDS011;2237;51.870;6.160;2024-02-15T13:30:32;5.65;;;1.58;;
4448;SDS011;2237;51.870;6.160;2024-02-15T13:32:59;4.88;;;1.70;;
4448;SDS011;2237;51.870;6.160;2024-02-15T13:35:27;6.53;;;1.70;;
4448;SDS011;2237;51.870;6.160;2024-02-15T13:37:54;6.15;;;1.50;;
4448;SDS011;2237;51.870;6.160;2024-02-15T13:40:24;6.03;;;1.50;;
4448;SDS011;2237;51.870;6.160;2024-02-15T13:42:54;5.05;;;1.30;;
4448;SDS011;2237;51.870;6.160;2024-02-15T13:45:32;6.03;;;1.58;;
4448;SDS011;2237;51.870;6.160;2024-02-15T13:48:05;5.32;;;1.60;;
4448;SDS011;2237;51.870;6.160;2024-02-15T13:50:36;5.97;;;1.98;;
4448;SDS011;2237;51.870;6.160;2024-02-15T13:53:05;6.88;;;1.45;;
4448;SDS011;2237;51.870;6.160;2024-02-15T13:55:32;6.50;;;1.50;;
4448;SDS011;2237;51.870;6.160;2024-02-15T13:57:59;8.05;;;1.67;;
4448;SDS011;2237;51.870;6.160;2024-02-15T14:00:26;6.70;;;1.50;;
4448;SDS011;2237;51.870;6.160;2024-02-15T14:03:00;4.82;;;1.60;;
4448;SDS011;2237;51.870;6.160;2024-02-15T14:05:27;4.50;;;1.30;;
4448;SDS011;2237;51.870;6.160;2024-02-15T14:07:59;3.33;;;1.40;;
4448;SDS011;2237;51.870;6.160;2024-02-15T14:10:28;4.25;;;1.52;;
4448;SDS011;2237;51.870;6.160;2024-02-15T14:12:56;6.18;;;1.40;;
4448;SDS011;2237;51.870;6.160;2024-02-15T14:15:31;9.52;;;1.58;;
4448;SDS011;2237;51.870;6.160;2024-02-15T14:20:38;5.07;;;1.38;;
4448;SDS011;2237;51.870;6.160;2024-02-15T14:23:04;6.28;;;1.38;;
4448;SDS011;2237;51.870;6.160;2024-02-15T14:25:32;5.45;;;1.35;;
4448;SDS011;2237;51.870;6.160;2024-02-15T14:28:00;7.20;;;1.85;;
4448;SDS011;2237;51.870;6.160;2024-02-15T14:30:26;4.88;;;1.45;;
4448;SDS011;2237;51.870;6.160;2024-02-15T14:33:11;7.20;;;1.27;;
4448;SDS011;2237;51.870;6.160;2024-02-15T14:35:48;5.60;;;1.10;;
4448;SDS011;2237;51.870;6.160;2024-02-15T14:38:15;2.05;;;0.95;;
4448;SDS011;2237;51.870;6.160;2024-02-15T14:40:45;3.85;;;1.00;;
4448;SDS011;2237;51.870;6.160;2024-02-15T14:43:20;5.70;;;1.40;;
4448;SDS011;2237;51.870;6.160;2024-02-15T14:45:47;2.60;;;1.15;;
4448;SDS011;2237;51.870;6.160;2024-02-15T14:48:15;2.42;;;1.15;;
4448;SDS011;2237;51.870;6.160;2024-02-15T14:50:43;6.25;;;1.23;;
4448;SDS011;2237;51.870;6.160;2024-02-15T14:53:10;2.75;;;1.15;;
4448;SDS011;2237;51.870;6.160;2024-02-15T14:55:37;3.92;;;1.58;;
4448;SDS011;2237;51.870;6.160;2024-02-15T14:58:09;5.68;;;1.08;;
4448;SDS011;2237;51.870;6.160;2024-02-15T15:00:39;2.25;;;1.20;;
4448;SDS011;2237;51.870;6.160;2024-02-15T15:03:09;4.93;;;1.10;;
4448;SDS011;2237;51.870;6.160;2024-02-15T15:05:35;8.02;;;1.02;;
4448;SDS011;2237;51.870;6.160;2024-02-15T15:08:21;10.45;;;1.33;;
4448;SDS011;2237;51.870;6.160;2024-02-15T15:11:06;2.72;;;0.90;;
4448;SDS011;2237;51.870;6.160;2024-02-15T15:13:51;6.25;;;1.25;;
4448;SDS011;2237;51.870;6.160;2024-02-15T15:16:18;4.40;;;0.90;;
4448;SDS011;2237;51.870;6.160;2024-02-15T15:18:47;5.80;;;1.23;;
4448;SDS011;2237;51.870;6.160;2024-02-15T15:21:17;4.88;;;1.13;;
4448;SDS011;2237;51.870;6.160;2024-02-15T15:23:49;6.20;;;1.17;;
4448;SDS011;2237;51.870;6.160;2024-02-15T15:26:19;3.25;;;0.95;;
4448;SDS011;2237;51.870;6.160;2024-02-15T15:28:46;3.10;;;1.10;;
4448;SDS011;2237;51.870;6.160;2024-02-15T15:31:17;5.13;;;1.27;;
4448;SDS011;2237;51.870;6.160;2024-02-15T15:33:45;2.58;;;0.90;;
4448;SDS011;2237;51.870;6.160;2024-02-15T15:36:12;9.73;;;1.33;;
4448;SDS011;2237;51.870;6.160;2024-02-15T15:38:39;9.80;;;0.80;;
4448;SDS011;2237;51.870;6.160;2024-02-15T15:41:09;6.53;;;0.82;;
4448;SDS011;2237;51.870;6.160;2024-02-15T15:43:36;2.80;;;0.77;;
4448;SDS011;2237;51.870;6.160;2024-02-15T15:46:03;5.40;;;0.70;;
4448;SDS011;2237;51.870;6.160;2024-02-15T15:48:30;3.35;;;0.80;;
4448;SDS011;2237;51.870;6.160;2024-02-15T15:50:57;2.13;;;0.60;;
4448;SDS011;2237;51.870;6.160;2024-02-15T15:53:25;3.45;;;0.90;;
4448;SDS011;2237;51.870;6.160;2024-02-15T15:55:54;5.15;;;0.80;;
4448;SDS011;2237;51.870;6.160;2024-02-15T15:58:20;1.83;;;0.95;;
4448;SDS011;2237;51.870;6.160;2024-02-15T16:00:50;3.13;;;0.80;;
4448;SDS011;2237;51.870;6.160;2024-02-15T16:03:16;2.97;;;0.82;;